Guadalupe Mountains Natl Park, Texas
Current Conditions -  °F | °C
As of 6:51 AM on Sunday 21 Dec 2014 (Local Time) from KGDP Reporting Station
Clear Clear  
Wind Chill: 27°   Ceiling: Unl
Heat Index: 37°   Visibility: 10mi
Dew Point: 23°   Wind: 18mph
Humidity: 57%   Direction: 250°WSW
Pressure: 30.04"   Gusts: NA
Location:  31.92°N, 104.92°W
Report Text: KGDP 211251Z AUTO 25016KT 10SM CLR 03/M05 A3004 RMK AO2 SLP162 T00281050
Loading
Personal Weather Stations






























Interactive Weather Map New forecast layout! Learn more

10-Day Weather Forecast

Advertisements
Track Severe Weather on mobile